Huvudsida
METAR-TAF:

METAR-TAF

Flygplatser :

Halli Airport

Jämsä, Finland

latitud: 61-51N, longitud: 024-48E, höjd: 143 m

Aktuellt väderrapport

Denna rapport gjordes för 35 minuter sedan, klockan 18:20 UTC
Vind 9 kt från nordost
Temperatur 3°C
Fuktighet 93%
Tryck 987 hPa
Sikt 10 km eller mer
Mulet på en höjd av 500 ft
lätt regn

METAR: EFHA 231820Z AUTO 04009KT 9999 -RA OVC005 03/02 Q0987

Tid: 21:55 (18:55 UTC)

Väderprognos

Denna rapport gjordes för 7 timmar och 25 minuter sedan, klockan 11:30 UTC
Prognos gäller från 23 kl. 12 UTC till 23 kl. 14 UTC
Vind 6 kt från ost
Sikt 10 km eller mer
Få moln på en höjd av 1100 ft
Brutna moln på en höjd av 2000 ft
lätt regn
Temporärt
från 23 kl. 12 UTC till 23 kl. 14 UTC
Sikt: 6000 m
Brutna moln på en höjd av 800 ft
regn

TAF: EFHA 231130Z 2312/2314 10006KT 9999 -RA FEW011 BKN020 TEMPO 2312/2314 6000 RA BKN008

Aktuella väderrapporter och prognoser från 4000 flygplatser (METAR- och TAF-rapporter).

De tillgängliga stationerna syns som gula och röda prickar på kartan.

För musen över prickarna för att se namnen på stationerna.

Klicka sedan för att få väderrapporter och prognoser.

För att ändra kartan: Klicka på de gröna knapparna med ett svart kors på för att zooma in; den gröna knappen med ett streck på för att zooma ut; eller på de gröna pilarna för angränsande kartor.


METAR-TAF: